Time;durP1;ratioP1;P1;durP2;ratioP2;P2;SDS_P1;SDS_P2;PMS_P1;PMS_P2;Temp;Humidity;BMP_temperature;BMP_pressure;BME280_temperature;BME280_humidity;BME280_pressure;Samples;Min_cycle;Max_cycle;Signal;HPM_P1;HPM_P2
2022/09/12 00:01:19;;;;;;;3.94;1.36;;;;;;;;;;4871191;28;10001047;-40
2022/09/12 00:03:46;;;;;;;3.80;1.65;;;;;;;;;;4700670;28;10000204;-39
2022/09/12 00:06:14;;;;;;;3.70;1.13;;;;;;;;;;5034476;28;20114;-42
2022/09/12 00:08:41;;;;;;;3.88;1.48;;;;;;;;;;5052197;28;20056;-40
2022/09/12 00:11:10;;;;;;;4.45;1.85;;;;;;;;;;5059689;28;20079;-40
2022/09/12 00:13:38;;;;;;;6.50;1.70;;;;;;;;;;5033517;28;20048;-39
2022/09/12 00:16:04;;;;;;;5.22;2.00;;;;;;;;;;5059696;28;20078;-40
2022/09/12 00:18:32;;;;;;;3.92;1.88;;;;;;;;;;5038614;28;20044;-43
2022/09/12 00:21:02;;;;;;;3.83;1.45;;;;;;;;;;5051360;28;20144;-41
2022/09/12 00:23:28;;;;;;;3.25;1.20;;;;;;;;;;5032964;28;20087;-40
2022/09/12 00:25:55;;;;;;;4.07;1.20;;;;;;;;;;5051764;28;20036;-40
2022/09/12 00:28:23;;;;;;;3.75;1.60;;;;;;;;;;5041903;28;20135;-42
2022/09/12 00:30:49;;;;;;;3.88;1.48;;;;;;;;;;5043523;28;20040;-40
2022/09/12 00:33:16;;;;;;;5.60;1.67;;;;;;;;;;5046199;28;20052;-40
2022/09/12 00:35:44;;;;;;;3.30;1.65;;;;;;;;;;5055700;28;20052;-40
2022/09/12 00:38:10;;;;;;;4.57;1.70;;;;;;;;;;5034844;28;20651;-40
2022/09/12 00:40:37;;;;;;;4.03;1.63;;;;;;;;;;5041809;28;20060;-39
2022/09/12 00:43:03;;;;;;;3.22;1.58;;;;;;;;;;5034002;28;20045;-40
2022/09/12 00:45:31;;;;;;;5.30;2.83;;;;;;;;;;5044546;28;20040;-41
2022/09/12 00:48:01;;;;;;;4.40;1.75;;;;;;;;;;5046712;28;20048;-39
2022/09/12 00:50:28;;;;;;;4.10;1.73;;;;;;;;;;5059055;28;20121;-44
2022/09/12 00:52:57;;;;;;;4.25;1.17;;;;;;;;;;5052172;28;20043;-40
2022/09/12 00:55:25;;;;;;;3.92;1.42;;;;;;;;;;5052203;28;20052;-39
2022/09/12 00:57:54;;;;;;;3.67;1.67;;;;;;;;;;5051044;28;20106;-41
2022/09/12 01:00:21;;;;;;;3.92;1.50;;;;;;;;;;5067808;28;20806;-42
2022/09/12 01:02:51;;;;;;;3.73;1.80;;;;;;;;;;5046395;28;20048;-39
2022/09/12 01:05:18;;;;;;;3.63;1.10;;;;;;;;;;5056226;28;20401;-42
2022/09/12 01:07:47;;;;;;;4.15;1.55;;;;;;;;;;5053358;28;20044;-39
2022/09/12 01:10:15;;;;;;;3.97;1.42;;;;;;;;;;5053269;28;20047;-40
2022/09/12 01:12:43;;;;;;;3.92;1.20;;;;;;;;;;5037882;28;20401;-42
2022/09/12 01:15:10;;;;;;;3.20;1.53;;;;;;;;;;5062662;28;20220;-46
2022/09/12 01:17:42;;;;;;;3.42;1.42;;;;;;;;;;5054588;28;20037;-39
2022/09/12 01:20:23;;;;;;;3.83;1.52;;;;;;;;;;5051030;28;20115;-38
2022/09/12 01:23:09;;;;;;;3.55;1.23;;;;;;;;;;5044807;28;20135;-39
2022/09/12 01:25:41;;;;;;;3.75;1.30;;;;;;;;;;5035848;28;20072;-40
2022/09/12 01:28:20;;;;;;;4.40;2.00;;;;;;;;;;5071844;28;20044;-40
2022/09/12 01:30:51;;;;;;;4.22;1.80;;;;;;;;;;5063138;28;20052;-41
2022/09/12 01:33:35;;;;;;;4.00;1.48;;;;;;;;;;5047213;28;20067;-41
2022/09/12 01:36:11;;;;;;;5.05;1.60;;;;;;;;;;5055847;28;20052;-40
2022/09/12 01:38:39;;;;;;;2.97;0.98;;;;;;;;;;5070435;28;20101;-40
2022/09/12 01:41:09;;;;;;;3.27;1.20;;;;;;;;;;5055662;28;20052;-40
2022/09/12 01:43:38;;;;;;;4.13;1.67;;;;;;;;;;5044566;28;20044;-40
2022/09/12 01:46:11;;;;;;;3.20;0.82;;;;;;;;;;5061468;28;20055;-40
2022/09/12 01:48:39;;;;;;;2.97;0.90;;;;;;;;;;5061658;28;20505;-40
2022/09/12 01:51:10;;;;;;;3.22;1.35;;;;;;;;;;5060921;28;20387;-39
2022/09/12 01:53:41;;;;;;;2.93;1.27;;;;;;;;;;5080657;28;20044;-41
2022/09/12 01:56:09;;;;;;;3.78;1.08;;;;;;;;;;5051394;28;20484;-42
2022/09/12 01:58:38;;;;;;;3.55;1.25;;;;;;;;;;5028962;28;20109;-41
2022/09/12 02:01:07;;;;;;;2.55;0.98;;;;;;;;;;5050253;28;20043;-39
2022/09/12 02:03:39;;;;;;;3.58;1.52;;;;;;;;;;5073178;28;20055;-41
2022/09/12 02:06:07;;;;;;;2.80;1.03;;;;;;;;;;5063207;28;20560;-42
2022/09/12 02:08:38;;;;;;;3.78;1.25;;;;;;;;;;5077994;28;20112;-42
2022/09/12 02:11:06;;;;;;;4.32;1.00;;;;;;;;;;5049601;28;20044;-39
2022/09/12 02:13:35;;;;;;;3.28;1.20;;;;;;;;;;5058212;28;20573;-39
2022/09/12 02:16:04;;;;;;;4.25;0.95;;;;;;;;;;5059123;28;20075;-40
2022/09/12 02:18:32;;;;;;;2.93;1.07;;;;;;;;;;5057975;28;20577;-41
2022/09/12 02:21:01;;;;;;;5.03;1.67;;;;;;;;;;5060560;28;20048;-40
2022/09/12 02:23:30;;;;;;;3.88;1.35;;;;;;;;;;5065824;28;20429;-42
2022/09/12 02:25:57;;;;;;;2.47;0.77;;;;;;;;;;5066559;28;20040;-40
2022/09/12 02:28:27;;;;;;;4.93;2.20;;;;;;;;;;5054736;28;20080;-40
2022/09/12 02:30:59;;;;;;;2.73;0.73;;;;;;;;;;5036442;28;20044;-41
2022/09/12 02:33:27;;;;;;;4.50;1.77;;;;;;;;;;5045832;28;20053;-43
2022/09/12 02:35:56;;;;;;;3.58;1.08;;;;;;;;;;5047768;28;20112;-40
2022/09/12 02:38:27;;;;;;;3.78;1.38;;;;;;;;;;5080547;28;20134;-40
2022/09/12 02:40:54;;;;;;;3.30;1.10;;;;;;;;;;5058358;28;20105;-39
2022/09/12 02:43:20;;;;;;;3.20;1.17;;;;;;;;;;5066640;28;20458;-39
2022/09/12 02:45:47;;;;;;;2.92;0.95;;;;;;;;;;5059415;28;20498;-39
2022/09/12 02:48:15;;;;;;;3.20;0.90;;;;;;;;;;5059639;28;20090;-40
2022/09/12 02:50:42;;;;;;;4.15;0.90;;;;;;;;;;5059834;28;20051;-39
2022/09/12 02:53:09;;;;;;;3.15;1.27;;;;;;;;;;5055739;28;20493;-41
2022/09/12 02:55:38;;;;;;;2.47;0.53;;;;;;;;;;5063323;28;20509;-41
2022/09/12 02:58:06;;;;;;;2.55;0.95;;;;;;;;;;5055630;28;20064;-40
2022/09/12 03:00:36;;;;;;;3.55;1.20;;;;;;;;;;5066625;28;20110;-40
2022/09/12 03:03:14;;;;;;;3.33;1.10;;;;;;;;;;5065877;28;20048;-39
2022/09/12 03:05:46;;;;;;;2.70;0.73;;;;;;;;;;5055060;28;20117;-39
2022/09/12 03:08:17;;;;;;;2.10;0.83;;;;;;;;;;5068536;28;20044;-40
2022/09/12 03:10:58;;;;;;;3.20;1.10;;;;;;;;;;5065199;28;20047;-41
2022/09/12 03:13:30;;;;;;;3.08;0.77;;;;;;;;;;5064718;28;20067;-40
2022/09/12 03:16:02;;;;;;;3.20;0.80;;;;;;;;;;5076780;28;20104;-39
2022/09/12 03:18:38;;;;;;;3.60;1.10;;;;;;;;;;5068160;28;20044;-43
2022/09/12 03:21:09;;;;;;;2.80;0.93;;;;;;;;;;5058436;28;20090;-42
2022/09/12 03:23:38;;;;;;;2.92;0.98;;;;;;;;;;5073083;28;20113;-39
2022/09/12 03:26:11;;;;;;;1.60;0.32;;;;;;;;;;5065202;28;20172;-41
2022/09/12 03:28:39;;;;;;;2.67;0.95;;;;;;;;;;5076513;28;20036;-41
2022/09/12 03:31:11;;;;;;;2.10;0.47;;;;;;;;;;5057341;28;20041;-41
2022/09/12 03:33:38;;;;;;;3.53;0.63;;;;;;;;;;5065744;28;20595;-41
2022/09/12 03:36:05;;;;;;;2.97;1.00;;;;;;;;;;5065097;28;20052;-43
2022/09/12 03:38:32;;;;;;;3.70;1.27;;;;;;;;;;5070588;28;20871;-40
2022/09/12 03:40:58;;;;;;;3.40;1.30;;;;;;;;;;5055164;28;20040;-42
2022/09/12 03:43:28;;;;;;;2.45;0.80;;;;;;;;;;5048925;28;20051;-42
2022/09/12 03:45:54;;;;;;;3.03;0.87;;;;;;;;;;5055483;28;20055;-40
2022/09/12 03:48:21;;;;;;;2.72;0.80;;;;;;;;;;5048392;28;20051;-39
2022/09/12 03:50:48;;;;;;;2.97;0.80;;;;;;;;;;5030321;28;20474;-40
2022/09/12 03:53:14;;;;;;;2.03;0.50;;;;;;;;;;5049287;28;20110;-39
2022/09/12 03:55:42;;;;;;;3.10;1.00;;;;;;;;;;5008096;28;20149;-41
2022/09/12 03:58:08;;;;;;;3.07;0.83;;;;;;;;;;5043246;28;20044;-41
2022/09/12 04:00:38;;;;;;;1.92;0.70;;;;;;;;;;5026356;28;20495;-41
2022/09/12 04:03:05;;;;;;;2.83;0.77;;;;;;;;;;5045961;28;20604;-40
2022/09/12 04:05:31;;;;;;;2.88;0.80;;;;;;;;;;5032083;28;20697;-42
2022/09/12 04:07:58;;;;;;;2.60;0.77;;;;;;;;;;5043859;28;20048;-40
2022/09/12 04:10:24;;;;;;;3.33;1.00;;;;;;;;;;5035889;28;20181;-41
2022/09/12 04:12:51;;;;;;;3.15;0.68;;;;;;;;;;5039694;28;20049;-40
2022/09/12 04:15:17;;;;;;;2.38;0.80;;;;;;;;;;5009353;28;20529;-40
2022/09/12 04:17:45;;;;;;;3.30;1.20;;;;;;;;;;5040129;28;20105;-41
2022/09/12 04:20:12;;;;;;;3.40;1.35;;;;;;;;;;5041994;28;20071;-41
2022/09/12 04:22:38;;;;;;;3.77;1.13;;;;;;;;;;5025281;28;20135;-40
2022/09/12 04:25:05;;;;;;;3.03;0.82;;;;;;;;;;5033388;28;20080;-40
2022/09/12 04:27:31;;;;;;;2.38;0.68;;;;;;;;;;5022291;28;20446;-45
2022/09/12 04:29:59;;;;;;;5.45;1.25;;;;;;;;;;5042783;28;20129;-41
2022/09/12 04:32:25;;;;;;;2.78;0.90;;;;;;;;;;5046748;28;20107;-41
2022/09/12 04:34:53;;;;;;;4.10;1.23;;;;;;;;;;5052342;28;20063;-41
2022/09/12 04:37:21;;;;;;;3.40;1.48;;;;;;;;;;5036963;28;20099;-42
2022/09/12 04:39:48;;;;;;;3.13;1.30;;;;;;;;;;5037940;28;20044;-41
2022/09/12 04:42:14;;;;;;;3.70;1.33;;;;;;;;;;5044289;28;20053;-42
2022/09/12 04:44:41;;;;;;;3.08;0.88;;;;;;;;;;5047844;28;20048;-40
2022/09/12 04:47:08;;;;;;;2.83;0.93;;;;;;;;;;5034282;28;20499;-40
2022/09/12 04:49:34;;;;;;;3.90;1.60;;;;;;;;;;5049493;28;20124;-42
2022/09/12 04:52:02;;;;;;;3.72;1.13;;;;;;;;;;5058658;28;20109;-40
2022/09/12 04:54:29;;;;;;;3.53;1.15;;;;;;;;;;5058961;28;20051;-43
2022/09/12 04:56:55;;;;;;;3.83;1.33;;;;;;;;;;5053857;28;20086;-43
2022/09/12 04:59:22;;;;;;;2.27;0.80;;;;;;;;;;5074697;28;20048;-41
2022/09/12 05:01:49;;;;;;;2.38;0.73;;;;;;;;;;5043050;28;20059;-40
2022/09/12 05:04:15;;;;;;;3.03;0.80;;;;;;;;;;5058806;28;20055;-43
2022/09/12 05:06:42;;;;;;;3.80;1.20;;;;;;;;;;5063020;28;20051;-41
2022/09/12 05:09:11;;;;;;;2.25;0.70;;;;;;;;;;5035512;28;20557;-43
2022/09/12 05:11:40;;;;;;;3.47;1.23;;;;;;;;;;5062594;28;20101;-41
2022/09/12 05:14:08;;;;;;;3.53;1.08;;;;;;;;;;5062011;28;20040;-43
2022/09/12 05:16:35;;;;;;;4.78;2.17;;;;;;;;;;5059463;28;20056;-40
2022/09/12 05:19:03;;;;;;;4.10;1.60;;;;;;;;;;5057302;28;20110;-41
2022/09/12 05:21:29;;;;;;;4.15;1.50;;;;;;;;;;5030576;28;20048;-40
2022/09/12 05:23:58;;;;;;;3.13;0.80;;;;;;;;;;5055091;28;20045;-40
2022/09/12 05:26:26;;;;;;;3.45;0.80;;;;;;;;;;5053020;28;20052;-40
2022/09/12 05:28:53;;;;;;;3.03;1.42;;;;;;;;;;5052665;28;20537;-42
2022/09/12 05:31:21;;;;;;;2.67;0.90;;;;;;;;;;5059506;28;20056;-42
2022/09/12 05:33:49;;;;;;;3.08;1.13;;;;;;;;;;5063661;28;20742;-43
2022/09/12 05:36:17;;;;;;;3.67;0.90;;;;;;;;;;5060213;28;20055;-40
2022/09/12 05:38:44;;;;;;;3.22;1.13;;;;;;;;;;5064286;28;20109;-40
2022/09/12 05:41:12;;;;;;;3.25;1.23;;;;;;;;;;5054746;28;20047;-41
2022/09/12 05:43:41;;;;;;;3.83;1.33;;;;;;;;;;5055421;28;20133;-40
2022/09/12 05:46:08;;;;;;;4.18;1.48;;;;;;;;;;5064930;28;20158;-41
2022/09/12 05:48:35;;;;;;;2.97;1.10;;;;;;;;;;5030077;28;20052;-40
2022/09/12 05:51:02;;;;;;;4.10;1.15;;;;;;;;;;5055367;28;20055;-41
2022/09/12 05:53:29;;;;;;;5.32;0.85;;;;;;;;;;5034186;28;20040;-42
2022/09/12 05:56:02;;;;;;;2.67;0.65;;;;;;;;;;5058481;28;20044;-40
2022/09/12 05:58:29;;;;;;;3.33;1.05;;;;;;;;;;5044287;28;20048;-40
2022/09/12 06:01:01;;;;;;;4.00;1.10;;;;;;;;;;5024739;28;20687;-43
2022/09/12 06:03:27;;;;;;;4.18;1.52;;;;;;;;;;5046633;28;20077;-40
2022/09/12 06:05:54;;;;;;;3.28;0.98;;;;;;;;;;5035223;28;20052;-40
2022/09/12 06:08:20;;;;;;;2.63;0.80;;;;;;;;;;5043173;28;20063;-41
2022/09/12 06:10:48;;;;;;;3.22;1.60;;;;;;;;;;5034425;28;20585;-41
2022/09/12 06:13:17;;;;;;;3.63;1.50;;;;;;;;;;5038333;28;20049;-41
2022/09/12 06:15:43;;;;;;;3.10;1.17;;;;;;;;;;5047033;28;20057;-42
2022/09/12 06:18:11;;;;;;;3.00;1.02;;;;;;;;;;5044525;28;20106;-40
2022/09/12 06:20:38;;;;;;;2.05;0.63;;;;;;;;;;5051871;28;20064;-41
2022/09/12 06:23:04;;;;;;;4.45;1.10;;;;;;;;;;5016104;28;20045;-41
2022/09/12 06:25:31;;;;;;;3.53;1.77;;;;;;;;;;5041785;28;20106;-40
2022/09/12 06:27:57;;;;;;;3.40;1.00;;;;;;;;;;5035712;28;20041;-40
2022/09/12 06:30:24;;;;;;;3.15;1.45;;;;;;;;;;5050720;28;20553;-41
2022/09/12 06:32:51;;;;;;;3.78;1.50;;;;;;;;;;5029334;28;20811;-40
2022/09/12 06:35:20;;;;;;;2.60;0.93;;;;;;;;;;5042403;28;20127;-40
2022/09/12 06:37:47;;;;;;;4.53;1.93;;;;;;;;;;5051967;28;20393;-40
2022/09/12 06:40:13;;;;;;;3.92;1.30;;;;;;;;;;5041013;28;20880;-41
2022/09/12 06:42:41;;;;;;;3.40;1.50;;;;;;;;;;5056506;28;20044;-40
2022/09/12 06:45:09;;;;;;;3.60;1.30;;;;;;;;;;5035382;28;20065;-42
2022/09/12 06:47:36;;;;;;;3.35;1.33;;;;;;;;;;5041879;28;20064;-40
2022/09/12 06:50:03;;;;;;;3.30;1.10;;;;;;;;;;5057713;28;20072;-41
2022/09/12 06:52:31;;;;;;;6.47;1.15;;;;;;;;;;5076851;28;20044;-40
2022/09/12 06:54:57;;;;;;;3.58;1.45;;;;;;;;;;5061588;28;20052;-41
2022/09/12 06:57:26;;;;;;;5.22;1.65;;;;;;;;;;5071936;28;20048;-42
2022/09/12 06:59:53;;;;;;;2.88;1.15;;;;;;;;;;5072728;28;20314;-40
2022/09/12 07:02:19;;;;;;;3.07;1.13;;;;;;;;;;5074388;28;20043;-45
2022/09/12 07:04:46;;;;;;;2.53;0.73;;;;;;;;;;5061559;28;20053;-41
2022/09/12 07:07:13;;;;;;;3.72;1.20;;;;;;;;;;5057036;28;20052;-40
2022/09/12 07:09:41;;;;;;;2.75;0.95;;;;;;;;;;5059750;28;20336;-42
2022/09/12 07:12:07;;;;;;;2.40;0.68;;;;;;;;;;5054771;28;20075;-41
2022/09/12 07:14:34;;;;;;;3.43;1.07;;;;;;;;;;5057838;28;20057;-41
2022/09/12 07:17:00;;;;;;;3.03;1.05;;;;;;;;;;5060163;28;20048;-43
2022/09/12 07:19:28;;;;;;;3.40;1.10;;;;;;;;;;5051637;28;20053;-41
2022/09/12 07:21:55;;;;;;;2.53;0.82;;;;;;;;;;5063897;28;20544;-42
2022/09/12 07:24:21;;;;;;;2.42;0.60;;;;;;;;;;5041052;28;20052;-41
2022/09/12 07:26:49;;;;;;;2.67;0.57;;;;;;;;;;5061897;28;20522;-41
2022/09/12 07:29:16;;;;;;;2.70;0.65;;;;;;;;;;5054072;28;20375;-41
2022/09/12 07:31:43;;;;;;;3.47;1.05;;;;;;;;;;5061215;28;20056;-41
2022/09/12 07:34:09;;;;;;;4.25;1.13;;;;;;;;;;5061949;28;20610;-42
2022/09/12 07:36:36;;;;;;;3.67;1.10;;;;;;;;;;5052496;28;20048;-40
2022/09/12 07:39:03;;;;;;;6.53;1.27;;;;;;;;;;5058658;28;20048;-41
2022/09/12 07:41:31;;;;;;;3.45;1.17;;;;;;;;;;5055922;28;20040;-42
2022/09/12 07:44:01;;;;;;;4.60;1.25;;;;;;;;;;5063751;28;20381;-41
2022/09/12 07:46:29;;;;;;;2.85;0.90;;;;;;;;;;5082732;28;20078;-41
2022/09/12 07:48:56;;;;;;;3.22;0.98;;;;;;;;;;5053642;28;20439;-41
2022/09/12 07:51:24;;;;;;;2.70;0.60;;;;;;;;;;4700475;28;10000284;-41
2022/09/12 07:53:50;;;;;;;2.28;0.60;;;;;;;;;;5033089;28;20045;-42
2022/09/12 07:56:18;;;;;;;4.65;1.15;;;;;;;;;;5041769;28;20059;-43
2022/09/12 07:58:45;;;;;;;2.45;0.52;;;;;;;;;;5011927;28;20053;-40
2022/09/12 08:01:14;;;;;;;2.23;0.70;;;;;;;;;;5033451;28;20052;-40
2022/09/12 08:03:41;;;;;;;2.65;0.98;;;;;;;;;;5035714;28;20105;-40
2022/09/12 08:06:09;;;;;;;2.30;0.90;;;;;;;;;;5032041;28;20056;-41
2022/09/12 08:08:35;;;;;;;2.38;0.73;;;;;;;;;;5034552;28;20052;-40
2022/09/12 08:11:04;;;;;;;2.13;0.77;;;;;;;;;;5042677;28;20098;-41
2022/09/12 08:13:30;;;;;;;2.73;0.80;;;;;;;;;;5013514;28;20049;-41
2022/09/12 08:15:58;;;;;;;2.17;0.40;;;;;;;;;;4688997;28;9999829;-42
2022/09/12 08:18:27;;;;;;;3.13;1.30;;;;;;;;;;5031903;28;20056;-41
2022/09/12 08:20:57;;;;;;;3.80;0.82;;;;;;;;;;5033789;28;20051;-41
2022/09/12 08:23:24;;;;;;;2.97;1.03;;;;;;;;;;5038171;28;20155;-41
2022/09/12 08:25:51;;;;;;;3.35;1.13;;;;;;;;;;5016506;28;20052;-40
2022/09/12 08:28:17;;;;;;;2.20;0.82;;;;;;;;;;5025409;28;20064;-41
2022/09/12 08:30:44;;;;;;;3.47;1.52;;;;;;;;;;5021450;28;20056;-44
2022/09/12 08:33:10;;;;;;;3.00;0.90;;;;;;;;;;5026980;28;20461;-41
2022/09/12 08:35:38;;;;;;;3.60;1.30;;;;;;;;;;5021129;28;20703;-41
2022/09/12 08:38:04;;;;;;;2.15;0.60;;;;;;;;;;5031887;28;20056;-41
2022/09/12 08:40:33;;;;;;;2.67;0.75;;;;;;;;;;5021268;28;20110;-40
2022/09/12 08:43:03;;;;;;;2.60;0.90;;;;;;;;;;5041828;28;20048;-45
2022/09/12 08:45:33;;;;;;;2.42;1.05;;;;;;;;;;5046890;28;20072;-40
2022/09/12 08:48:02;;;;;;;3.40;1.40;;;;;;;;;;5050007;28;20052;-40
2022/09/12 08:50:29;;;;;;;1.52;0.30;;;;;;;;;;5048908;28;20048;-40
2022/09/12 08:52:58;;;;;;;2.92;0.90;;;;;;;;;;5061304;28;20098;-42
2022/09/12 08:55:27;;;;;;;2.22;0.63;;;;;;;;;;5051346;28;20054;-41
2022/09/12 08:57:55;;;;;;;2.30;0.82;;;;;;;;;;5065242;28;20056;-40
2022/09/12 09:00:22;;;;;;;2.27;0.77;;;;;;;;;;5050236;28;20588;-41
2022/09/12 09:03:00;;;;;;;3.50;0.75;;;;;;;;;;5059127;28;20044;-40
2022/09/12 09:05:32;;;;;;;2.38;0.38;;;;;;;;;;5063416;28;20045;-41
2022/09/12 09:08:11;;;;;;;2.65;0.60;;;;;;;;;;5051267;28;20048;-43
2022/09/12 09:10:43;;;;;;;2.08;0.60;;;;;;;;;;5054281;28;20663;-41
2022/09/12 09:14:46;;;;;;;2.10;0.43;;;;;;;;;;5023089;28;20145;-40
2022/09/12 09:16:04;;;;;;;2.28;0.82;;;;;;;;;;5051193;28;20076;-43
2022/09/12 09:18:33;;;;;;;1.92;0.43;;;;;;;;;;5063630;28;20052;-40
2022/09/12 09:21:02;;;;;;;2.03;0.60;;;;;;;;;;5048194;28;20058;-42
2022/09/12 09:23:33;;;;;;;2.55;0.80;;;;;;;;;;5053282;28;20554;-42
2022/09/12 09:26:02;;;;;;;2.63;0.93;;;;;;;;;;5052463;28;21017;-41
2022/09/12 09:28:32;;;;;;;3.55;1.17;;;;;;;;;;5052670;28;20101;-43
2022/09/12 09:30:58;;;;;;;1.90;0.45;;;;;;;;;;5058699;28;20478;-40
2022/09/12 09:33:27;;;;;;;1.80;0.63;;;;;;;;;;5050462;28;20056;-41
2022/09/12 09:36:02;;;;;;;1.80;0.50;;;;;;;;;;5047872;28;20135;-41
2022/09/12 09:38:34;;;;;;;2.57;0.83;;;;;;;;;;5058994;28;20036;-40
2022/09/12 09:41:07;;;;;;;2.63;0.90;;;;;;;;;;5050766;28;20854;-41
2022/09/12 09:43:33;;;;;;;2.25;0.77;;;;;;;;;;5061401;28;20086;-40
2022/09/12 09:46:00;;;;;;;2.90;0.98;;;;;;;;;;5054327;28;20154;-40
2022/09/12 09:48:28;;;;;;;2.42;0.82;;;;;;;;;;5064144;28;20054;-41
2022/09/12 09:50:57;;;;;;;2.53;0.70;;;;;;;;;;5044731;28;20079;-40
2022/09/12 09:53:36;;;;;;;2.13;0.65;;;;;;;;;;5046180;28;20125;-40
2022/09/12 09:56:07;;;;;;;2.22;0.60;;;;;;;;;;5038665;28;20414;-41
2022/09/12 09:58:34;;;;;;;2.25;0.90;;;;;;;;;;5041524;28;20060;-41
2022/09/12 10:01:01;;;;;;;2.38;0.75;;;;;;;;;;5026922;28;20037;-40
2022/09/12 10:03:32;;;;;;;2.37;0.43;;;;;;;;;;5041458;28;20681;-40
2022/09/12 10:06:00;;;;;;;2.60;0.60;;;;;;;;;;5032762;28;20049;-40
2022/09/12 10:08:28;;;;;;;2.30;0.60;;;;;;;;;;5042897;28;20066;-45
2022/09/12 10:10:56;;;;;;;2.25;0.95;;;;;;;;;;5047508;28;20037;-40
2022/09/12 10:13:31;;;;;;;2.13;0.68;;;;;;;;;;5036785;28;20059;-43
2022/09/12 10:16:01;;;;;;;1.97;0.60;;;;;;;;;;4700982;28;10000008;-41
2022/09/12 10:18:35;;;;;;;1.95;0.50;;;;;;;;;;5016709;28;20049;-42
2022/09/12 10:21:02;;;;;;;2.10;0.73;;;;;;;;;;5035854;28;20056;-42
2022/09/12 10:23:32;;;;;;;1.98;0.40;;;;;;;;;;5061179;28;20040;-40
2022/09/12 10:26:00;;;;;;;2.10;0.55;;;;;;;;;;5031843;28;20049;-41
2022/09/12 10:28:32;;;;;;;1.63;0.32;;;;;;;;;;5034458;28;20069;-43
2022/09/12 10:31:00;;;;;;;2.10;0.70;;;;;;;;;;5044079;28;20048;-40
2022/09/12 10:33:27;;;;;;;2.07;0.53;;;;;;;;;;5066220;28;20056;-41
2022/09/12 10:35:55;;;;;;;2.40;0.85;;;;;;;;;;5041166;28;20041;-41
2022/09/12 10:38:23;;;;;;;1.70;0.40;;;;;;;;;;5050754;28;20053;-41
2022/09/12 10:40:56;;;;;;;2.15;0.70;;;;;;;;;;5043275;28;20049;-41
2022/09/12 10:43:30;;;;;;;2.38;0.73;;;;;;;;;;5027941;28;20600;-44
2022/09/12 10:45:58;;;;;;;1.63;0.43;;;;;;;;;;5038325;28;20061;-42
2022/09/12 10:48:27;;;;;;;1.83;0.40;;;;;;;;;;5045705;28;20052;-44
2022/09/12 10:50:56;;;;;;;1.63;0.32;;;;;;;;;;5071733;28;20047;-41
2022/09/12 10:53:24;;;;;;;1.55;0.30;;;;;;;;;;5045615;28;20047;-45
2022/09/12 10:55:59;;;;;;;2.15;0.57;;;;;;;;;;5051664;28;20105;-41
2022/09/12 10:58:33;;;;;;;1.87;0.33;;;;;;;;;;5031916;28;20502;-41
2022/09/12 11:01:05;;;;;;;2.00;0.50;;;;;;;;;;5043665;28;20361;-41
2022/09/12 11:03:39;;;;;;;1.75;0.38;;;;;;;;;;5050568;28;20075;-42
2022/09/12 11:06:06;;;;;;;1.38;0.20;;;;;;;;;;5069288;28;20047;-41
2022/09/12 11:08:47;;;;;;;1.85;0.32;;;;;;;;;;5073767;28;20109;-42
2022/09/12 11:11:20;;;;;;;2.43;0.70;;;;;;;;;;5071005;28;20056;-41
2022/09/12 11:13:53;;;;;;;2.03;0.63;;;;;;;;;;5051301;28;20053;-41
2022/09/12 11:16:24;;;;;;;1.83;0.40;;;;;;;;;;5059303;28;20052;-41
2022/09/12 11:19:03;;;;;;;2.10;0.77;;;;;;;;;;5050559;28;20094;-43
2022/09/12 11:21:40;;;;;;;2.10;0.40;;;;;;;;;;5047718;28;20040;-40
2022/09/12 11:24:17;;;;;;;2.23;0.63;;;;;;;;;;5053552;28;20083;-43
2022/09/12 11:26:49;;;;;;;1.80;0.43;;;;;;;;;;5034096;28;20047;-41
2022/09/12 11:29:21;;;;;;;2.00;0.50;;;;;;;;;;5058868;28;20537;-42
2022/09/12 11:32:00;;;;;;;2.35;0.75;;;;;;;;;;5030899;28;21000;-40
2022/09/12 11:34:33;;;;;;;1.88;0.43;;;;;;;;;;5044214;28;20110;-40
2022/09/12 11:37:09;;;;;;;1.97;0.40;;;;;;;;;;5045762;28;20082;-41
2022/09/12 11:39:38;;;;;;;1.85;0.47;;;;;;;;;;5069969;28;20055;-40
2022/09/12 11:42:07;;;;;;;1.70;0.40;;;;;;;;;;5069668;28;20440;-41
2022/09/12 11:44:36;;;;;;;1.75;0.45;;;;;;;;;;5062505;28;20652;-42
2022/09/12 11:47:08;;;;;;;2.17;0.60;;;;;;;;;;5067866;28;20056;-42
2022/09/12 11:49:37;;;;;;;2.20;0.70;;;;;;;;;;5055049;28;20044;-40
2022/09/12 11:52:07;;;;;;;1.75;0.40;;;;;;;;;;5054809;28;21251;-40
2022/09/12 11:54:36;;;;;;;1.83;0.50;;;;;;;;;;5074397;28;20504;-40
2022/09/12 11:57:06;;;;;;;1.75;0.47;;;;;;;;;;5043895;28;20589;-41
2022/09/12 11:59:35;;;;;;;1.60;0.40;;;;;;;;;;5030595;28;20481;-42
2022/09/12 12:02:10;;;;;;;1.47;0.30;;;;;;;;;;4420549;28;10001872;-40
2022/09/12 12:04:39;;;;;;;2.17;0.65;;;;;;;;;;5055874;28;20138;-41
2022/09/12 12:07:07;;;;;;;1.88;0.40;;;;;;;;;;5055793;28;20056;-42
2022/09/12 12:09:34;;;;;;;2.07;0.50;;;;;;;;;;5057511;28;20057;-46
2022/09/12 12:12:03;;;;;;;1.90;0.35;;;;;;;;;;5041738;28;20109;-40
2022/09/12 12:14:32;;;;;;;1.90;0.50;;;;;;;;;;5047705;28;20129;-42
2022/09/12 12:16:59;;;;;;;2.42;0.60;;;;;;;;;;5045203;28;20059;-41
2022/09/12 12:19:37;;;;;;;1.90;0.40;;;;;;;;;;5059450;28;20058;-40
2022/09/12 12:22:06;;;;;;;2.33;0.63;;;;;;;;;;5045994;28;20048;-41
2022/09/12 12:24:33;;;;;;;2.08;0.60;;;;;;;;;;5062938;28;20044;-41
2022/09/12 12:27:01;;;;;;;1.75;0.45;;;;;;;;;;5055952;28;20071;-40
2022/09/12 12:29:38;;;;;;;2.30;0.73;;;;;;;;;;5113914;27;20471;-41
2022/09/12 12:32:21;;;;;;;1.98;0.52;;;;;;;;;;5091047;27;20486;-45
2022/09/12 12:34:48;;;;;;;2.15;0.57;;;;;;;;;;5089185;27;20040;-41
2022/09/12 12:37:33;;;;;;;1.73;0.30;;;;;;;;;;5078752;27;20047;-43
2022/09/12 12:40:04;;;;;;;1.60;0.40;;;;;;;;;;4718865;27;10000324;-40
2022/09/12 12:43:04;;;;;;;1.80;0.43;;;;;;;;;;5064464;27;20040;-40
2022/09/12 12:45:59;;;;;;;1.90;0.60;;;;;;;;;;5069124;27;20083;-40
2022/09/12 12:48:27;;;;;;;2.42;0.82;;;;;;;;;;5053863;27;20043;-40
2022/09/12 12:50:54;;;;;;;2.17;0.52;;;;;;;;;;5030322;28;20132;-40
2022/09/12 12:53:22;;;;;;;2.20;0.63;;;;;;;;;;5036093;28;20032;-41
2022/09/12 12:55:50;;;;;;;2.03;0.52;;;;;;;;;;5043260;28;20047;-41
2022/09/12 12:58:27;;;;;;;1.90;0.50;;;;;;;;;;5027175;28;20054;-40
2022/09/12 13:01:04;;;;;;;3.15;0.93;;;;;;;;;;5027784;28;21104;-40
2022/09/12 13:03:32;;;;;;;1.90;0.50;;;;;;;;;;5051011;28;20542;-40
2022/09/12 13:06:01;;;;;;;1.70;0.40;;;;;;;;;;5060504;28;20055;-41
2022/09/12 13:08:30;;;;;;;1.90;0.55;;;;;;;;;;5044755;28;20067;-43
2022/09/12 13:10:59;;;;;;;1.75;0.38;;;;;;;;;;5070514;28;20042;-41
2022/09/12 13:13:28;;;;;;;1.65;0.40;;;;;;;;;;5072663;28;20036;-42
2022/09/12 13:15:55;;;;;;;1.92;0.50;;;;;;;;;;5070574;28;20046;-40
2022/09/12 13:18:27;;;;;;;2.23;0.57;;;;;;;;;;5076995;28;20631;-45
2022/09/12 13:21:08;;;;;;;1.98;0.50;;;;;;;;;;5048550;28;20048;-41
2022/09/12 13:23:36;;;;;;;2.08;0.65;;;;;;;;;;5067790;28;20486;-40
2022/09/12 13:26:03;;;;;;;1.42;0.32;;;;;;;;;;5054065;28;20044;-40
2022/09/12 13:28:30;;;;;;;2.03;0.60;;;;;;;;;;5058173;28;20070;-39
2022/09/12 13:31:05;;;;;;;1.87;0.60;;;;;;;;;;5087239;28;20055;-40
2022/09/12 13:33:35;;;;;;;1.80;0.40;;;;;;;;;;5084547;28;20031;-43
2022/09/12 13:36:08;;;;;;;1.77;0.47;;;;;;;;;;5073720;28;20039;-41
2022/09/12 13:38:40;;;;;;;1.73;0.40;;;;;;;;;;5063129;28;20039;-40
2022/09/12 13:41:25;;;;;;;1.55;0.40;;;;;;;;;;5042178;28;20464;-45
2022/09/12 13:43:52;;;;;;;2.00;0.50;;;;;;;;;;5053210;28;20097;-39
2022/09/12 13:46:21;;;;;;;2.00;0.52;;;;;;;;;;5064066;28;20533;-40
2022/09/12 13:48:49;;;;;;;1.83;0.50;;;;;;;;;;5044993;28;20051;-39
2022/09/12 13:51:21;;;;;;;2.00;0.52;;;;;;;;;;5051005;28;20048;-39
2022/09/12 13:53:48;;;;;;;1.60;0.38;;;;;;;;;;5058254;28;20060;-43
2022/09/12 13:56:15;;;;;;;2.23;0.70;;;;;;;;;;5056901;28;20041;-40
2022/09/12 13:58:50;;;;;;;2.00;0.60;;;;;;;;;;5060521;28;20037;-40
2022/09/12 14:01:17;;;;;;;1.77;0.47;;;;;;;;;;5062166;28;20044;-41
2022/09/12 14:06:36;;;;;;;1.70;0.50;;;;;;;;;;5055759;28;20051;-41
2022/09/12 14:09:12;;;;;;;1.67;0.37;;;;;;;;;;5036207;28;20040;-39
2022/09/12 14:11:39;;;;;;;1.80;0.47;;;;;;;;;;5047450;28;20120;-43
2022/09/12 14:14:18;;;;;;;2.25;0.60;;;;;;;;;;5054024;28;20037;-41
2022/09/12 14:16:44;;;;;;;1.63;0.35;;;;;;;;;;5039743;28;20090;-40
2022/09/12 14:19:15;;;;;;;2.05;0.50;;;;;;;;;;5064413;28;20032;-41
2022/09/12 14:21:43;;;;;;;2.13;0.60;;;;;;;;;;5058533;28;20052;-39
2022/09/12 14:24:11;;;;;;;1.65;0.40;;;;;;;;;;5063827;28;20455;-40
2022/09/12 14:26:39;;;;;;;2.00;0.50;;;;;;;;;;5051661;28;20080;-39
2022/09/12 14:29:06;;;;;;;1.63;0.30;;;;;;;;;;5050797;28;20075;-41
2022/09/12 14:31:35;;;;;;;1.98;0.52;;;;;;;;;;5039235;28;20097;-43
2022/09/12 14:34:09;;;;;;;1.77;0.40;;;;;;;;;;5056944;28;20040;-41
2022/09/12 14:36:37;;;;;;;2.00;0.57;;;;;;;;;;5049225;28;20044;-39
2022/09/12 14:39:06;;;;;;;2.17;0.60;;;;;;;;;;5052571;28;20124;-41
2022/09/12 14:41:36;;;;;;;1.85;0.40;;;;;;;;;;4714074;28;10000315;-39
2022/09/12 14:44:04;;;;;;;1.73;0.40;;;;;;;;;;5055415;28;20493;-39
2022/09/12 14:46:33;;;;;;;1.83;0.50;;;;;;;;;;5044071;28;20036;-40
2022/09/12 14:49:02;;;;;;;2.83;1.13;;;;;;;;;;5051247;28;20545;-39
2022/09/12 14:51:31;;;;;;;2.00;0.70;;;;;;;;;;5066071;28;20489;-40
2022/09/12 14:53:58;;;;;;;2.22;0.57;;;;;;;;;;5064947;28;21035;-40
2022/09/12 14:56:39;;;;;;;2.78;0.95;;;;;;;;;;5058789;28;20052;-39
2022/09/12 14:59:27;;;;;;;1.98;0.57;;;;;;;;;;5051835;28;20083;-41